createdAt,value
2016-04-28T00:00:55.278Z,62.78
2016-04-28T00:01:55.264Z,63.26
2016-04-28T00:02:55.485Z,62.69
2016-04-28T00:03:55.302Z,62.5
2016-04-28T00:04:55.289Z,62.69
2016-04-28T00:05:55.260Z,62.5
2016-04-28T00:06:54.824Z,62.69
2016-04-28T00:07:55.266Z,62.97
2016-04-28T00:08:55.674Z,62.5
2016-04-28T00:09:54.817Z,62.88
2016-04-28T00:10:55.710Z,62.5
2016-04-28T00:11:55.260Z,62.4
2016-04-28T00:12:55.263Z,62.88
2016-04-28T00:13:55.251Z,62.4
2016-04-28T00:14:54.784Z,62.97
2016-04-28T00:15:55.223Z,62.97
2016-04-28T00:16:55.274Z,63.17
2016-04-28T00:17:55.229Z,62.97
2016-04-28T00:18:55.248Z,63.07
2016-04-28T00:19:55.266Z,63.26
2016-04-28T00:20:55.269Z,63.26
2016-04-28T00:21:55.443Z,62.88
2016-04-28T00:22:55.462Z,62.97
2016-04-28T00:24:55.451Z,62.88
2016-04-28T00:25:55.470Z,63.07
2016-04-28T00:27:09.317Z,63.1
2016-04-28T00:27:55.209Z,62.88
2016-04-28T00:28:55.461Z,63.07
2016-04-28T00:30:55.249Z,63.2
2016-04-28T00:31:55.205Z,62.97
2016-04-28T00:32:55.222Z,63.86
2016-04-28T00:33:55.225Z,63.35
2016-04-28T00:34:55.213Z,63.67
2016-04-28T00:35:55.199Z,63.35
2016-04-28T00:36:55.218Z,63.45
2016-04-28T00:37:55.205Z,63.26
2016-04-28T00:38:55.208Z,63.29
2016-04-28T00:39:55.195Z,63.95
2016-04-28T00:40:55.041Z,64.24
2016-04-28T00:41:56.231Z,63.95
2016-04-28T00:42:55.219Z,63.67
2016-04-28T00:43:55.221Z,63.57
2016-04-28T00:44:55.412Z,63.86
2016-04-28T00:45:55.179Z,63.39
2016-04-28T00:46:55.401Z,63.76
2016-04-28T00:47:55.232Z,64.24
2016-04-28T00:49:55.206Z,64.14
2016-04-28T00:50:55.193Z,63.95
2016-04-28T00:51:55.212Z,64.24
2016-04-28T00:52:55.386Z,64.05
2016-04-28T00:53:55.186Z,64.24
2016-04-28T00:54:55.173Z,63.86
2016-04-28T00:55:55.738Z,64.24
2016-04-28T00:56:55.100Z,64.24
2016-04-28T00:58:09.290Z,64.05
2016-04-28T00:58:55.167Z,63.86
2016-04-28T00:59:55.202Z,64.05
2016-04-28T01:00:55.189Z,63.86
2016-04-28T01:02:55.413Z,64.14
2016-04-28T01:04:09.447Z,64.14
2016-04-28T01:04:55.372Z,63.86
2016-04-28T01:05:55.155Z,63.48
2016-04-28T01:06:55.174Z,63.76
2016-04-28T01:07:55.145Z,63.86
2016-04-28T01:08:55.351Z,63.48
2016-04-28T01:09:55.166Z,63.95
2016-04-28T01:10:56.184Z,63.48
2016-04-28T01:11:54.999Z,64.14
2016-04-28T01:12:55.190Z,64.24
2016-04-28T01:13:55.193Z,64.24
2016-04-28T01:14:55.179Z,64.14
2016-04-28T01:15:55.182Z,64.14
2016-04-28T01:16:54.701Z,64.24
2016-04-28T01:17:55.141Z,63.95
2016-04-28T01:18:55.378Z,64.43
2016-04-28T01:19:55.381Z,64.14
2016-04-28T01:20:55.351Z,64.24
2016-04-28T01:21:55.354Z,64.81
2016-04-28T01:22:55.623Z,64.71
2016-04-28T01:23:55.344Z,64.43
2016-04-28T01:24:55.144Z,64.81
2016-04-28T01:26:09.428Z,65
2016-04-28T01:26:55.165Z,64.43
2016-04-28T01:27:55.136Z,64.9
2016-04-28T01:28:55.170Z,64.14
2016-04-28T01:29:55.126Z,64.14
2016-04-28T01:30:55.129Z,64.14
2016-04-28T01:31:55.163Z,64.52
2016-04-28T01:32:55.165Z,64.71
2016-04-28T01:33:55.136Z,64.14
2016-04-28T01:34:55.139Z,64.43
2016-04-28T01:35:55.330Z,64.14
2016-04-28T01:36:55.129Z,64.9
2016-04-28T01:37:55.133Z,64.81
2016-04-28T01:38:55.150Z,64.24
2016-04-28T01:39:55.138Z,64.33
2016-04-28T01:41:09.812Z,64.62
2016-04-28T01:41:55.190Z,64.14
2016-04-28T01:42:55.115Z,64.71
2016-04-28T01:43:55.118Z,64.33
2016-04-28T01:44:55.120Z,64.33
2016-04-28T01:45:55.106Z,64.14
2016-04-28T01:46:55.110Z,63.76
2016-04-28T01:47:55.096Z,63.86
2016-04-28T01:48:55.115Z,63.95
2016-04-28T01:49:55.148Z,64.24
2016-04-28T01:50:55.121Z,63.57
2016-04-28T01:51:55.310Z,64.24
2016-04-28T01:52:55.109Z,63.95
2016-04-28T01:53:55.129Z,63.95
2016-04-28T01:54:55.334Z,64.24
2016-04-28T01:55:56.087Z,64.24
2016-04-28T01:56:55.948Z,63.39
2016-04-28T01:57:55.530Z,64.33
2016-04-28T01:58:55.094Z,64.05
2016-04-28T01:59:55.098Z,64.24
2016-04-28T02:00:54.631Z,63.76
2016-04-28T02:01:55.540Z,63.86
2016-04-28T02:02:55.106Z,64.33
2016-04-28T02:03:55.358Z,63.48
2016-04-28T02:04:55.095Z,63.48
2016-04-28T02:05:55.082Z,63.29
2016-04-28T02:06:55.132Z,63.57
2016-04-28T02:07:55.088Z,63.57
2016-04-28T02:08:55.091Z,63.57
2016-04-28T02:10:55.174Z,63.48
2016-04-28T02:11:55.130Z,63.29
2016-04-28T02:12:55.085Z,63.48
2016-04-28T02:13:54.823Z,63.48
2016-04-28T02:14:55.075Z,63.67
2016-04-28T02:15:55.329Z,63.1
2016-04-28T02:16:55.081Z,63.48
2016-04-28T02:17:55.068Z,63.67
2016-04-28T02:18:55.290Z,63.57
2016-04-28T02:19:55.307Z,63.67
2016-04-28T02:20:55.263Z,63.67
2016-04-28T02:21:55.094Z,63.39
2016-04-28T02:22:55.071Z,63.67
2016-04-28T02:23:55.105Z,63.48
2016-04-28T02:24:55.077Z,63.67
2016-04-28T02:25:55.064Z,63.48
2016-04-28T02:26:55.660Z,63.67
2016-04-28T02:27:55.084Z,63.2
2016-04-28T02:28:55.291Z,63.01
2016-04-28T02:29:55.059Z,62.72
2016-04-28T02:30:55.046Z,62.91
2016-04-28T02:31:55.080Z,62.82
2016-04-28T02:32:55.176Z,63.2
2016-04-28T02:33:55.617Z,63.1
2016-04-28T02:34:55.056Z,63.48
2016-04-28T02:35:55.467Z,63.48
2016-04-28T02:37:55.050Z,63.2
2016-04-28T02:38:55.255Z,63.29
2016-04-28T02:39:57.179Z,63.54
2016-04-28T02:40:54.901Z,63.64
2016-04-28T02:41:56.967Z,63.64
2016-04-28T02:42:55.250Z,63.45
2016-04-28T02:43:58.565Z,63.35
2016-04-28T02:44:55.037Z,64.3
2016-04-28T02:45:55.899Z,64.11
2016-04-28T02:47:09.121Z,63.92
2016-04-28T02:47:55.076Z,63.92
2016-04-28T02:48:55.033Z,63.73
2016-04-28T02:49:55.035Z,63.92
2016-04-28T02:50:55.021Z,64.49
2016-04-28T02:51:55.055Z,63.82
2016-04-28T02:52:55.042Z,63.92
2016-04-28T02:53:55.015Z,64.2
2016-04-28T02:54:55.048Z,64.11
2016-04-28T02:55:55.051Z,63.92
2016-04-28T02:56:54.741Z,64.01
2016-04-28T02:57:55.040Z,64.11
2016-04-28T02:58:55.043Z,64.11
2016-04-28T02:59:55.014Z,64.3
2016-04-28T03:00:55.034Z,64.68
2016-04-28T03:01:55.239Z,64.4
2016-04-28T03:02:55.007Z,64.59
2016-04-28T03:03:55.009Z,64.59
2016-04-28T03:04:55.012Z,64.49
2016-04-28T03:05:55.203Z,64.93
2016-04-28T03:06:55.017Z,64.93
2016-04-28T03:07:54.536Z,64.97
2016-04-28T03:08:54.992Z,64.87
2016-04-28T03:09:54.995Z,64.87
2016-04-28T03:10:54.997Z,64.93
2016-04-28T03:11:55.500Z,64.93
2016-04-28T03:12:55.191Z,64.65
2016-04-28T03:13:55.021Z,64.93
2016-04-28T03:14:55.008Z,64.84
2016-04-28T03:15:54.995Z,65.12
2016-04-28T03:16:54.966Z,65.12
2016-04-28T03:17:55.172Z,65.12
2016-04-28T03:18:54.972Z,65.12
2016-04-28T03:19:54.974Z,65.31
2016-04-28T03:20:54.993Z,65.41
2016-04-28T03:21:54.980Z,65.41
2016-04-28T03:22:54.968Z,65.59
2016-04-28T03:23:55.001Z,65.5
2016-04-28T03:24:54.988Z,65.5
2016-04-28T03:25:54.960Z,65.31
2016-04-28T03:26:55.040Z,65.5
2016-04-28T03:27:54.934Z,65.78
2016-04-28T03:28:54.936Z,65.69
2016-04-28T03:29:55.174Z,65.88
2016-04-28T03:30:54.942Z,65.97
2016-04-28T03:31:54.960Z,65.78
2016-04-28T03:32:54.931Z,65.59
2016-04-28T03:33:54.950Z,65.78
2016-04-28T03:34:54.968Z,65.59
2016-04-28T03:35:54.923Z,65.59
2016-04-28T03:36:54.926Z,65.78
2016-04-28T03:37:55.117Z,65.69
2016-04-28T03:38:54.948Z,65.78
2016-04-28T03:39:54.934Z,65.5
2016-04-28T03:40:54.921Z,65.97
2016-04-28T03:41:54.909Z,66.26
2016-04-28T03:42:54.927Z,65.59
2016-04-28T03:43:55.149Z,66.07
2016-04-28T03:44:55.135Z,66.64
2016-04-28T03:45:55.155Z,66.16
2016-04-28T03:46:54.891Z,66.16
2016-04-28T03:47:54.909Z,65.88
2016-04-28T03:48:54.881Z,66.26
2016-04-28T03:49:54.883Z,66.16
2016-04-28T03:50:54.871Z,66.35
2016-04-28T03:51:54.888Z,65.88
2016-04-28T03:52:54.907Z,66.26
2016-04-28T03:53:54.879Z,66.07
2016-04-28T03:54:54.881Z,66.26
2016-04-28T03:55:54.915Z,66.16
2016-04-28T03:56:55.418Z,66.16
2016-04-28T03:57:54.874Z,66.26
2016-04-28T03:58:55.095Z,66.16
2016-04-28T03:59:54.879Z,66.64
2016-04-28T04:00:54.866Z,66.45
2016-04-28T04:01:54.854Z,65.88
2016-04-28T04:02:54.871Z,66.07
2016-04-28T04:03:54.843Z,66.26
2016-04-28T04:04:54.862Z,66.16
2016-04-28T04:05:54.848Z,65.97
2016-04-28T04:06:55.070Z,66.54
2016-04-28T04:07:54.838Z,66.07
2016-04-28T04:08:54.841Z,66.35
2016-04-28T04:09:54.828Z,65.88
2016-04-28T04:10:54.831Z,66.16
2016-04-28T04:11:54.833Z,66.07
2016-04-28T04:12:54.836Z,66.35
2016-04-28T04:13:54.839Z,66.07
2016-04-28T04:15:54.360Z,66.45
2016-04-28T04:16:54.863Z,66.16
2016-04-28T04:17:54.803Z,66.54
2016-04-28T04:18:55.227Z,66.35
2016-04-28T04:19:54.823Z,66.35
2016-04-28T04:20:54.795Z,66.07
2016-04-28T04:21:55.001Z,66.16
2016-04-28T04:22:54.332Z,66.26
2016-04-28T04:23:54.818Z,66.16
2016-04-28T04:24:54.791Z,65.78
2016-04-28T04:25:54.777Z,65.69
2016-04-28T04:26:54.796Z,65.59
2016-04-28T04:27:54.798Z,66.16
2016-04-28T04:28:54.785Z,65.97
2016-04-28T04:29:54.788Z,66.16
2016-04-28T04:30:54.790Z,66.07
2016-04-28T04:31:54.981Z,65.5
2016-04-28T04:32:54.765Z,65.41
2016-04-28T04:33:54.783Z,65.12
2016-04-28T04:34:54.770Z,65.12
2016-04-28T04:36:54.807Z,64.97
2016-04-28T04:37:54.794Z,65.16
2016-04-28T04:38:55.015Z,65.25
2016-04-28T04:39:54.753Z,64.59
2016-04-28T04:40:54.755Z,64.97
2016-04-28T04:41:54.601Z,64.59
2016-04-28T04:42:54.760Z,65.06
2016-04-28T04:43:54.747Z,64.87
2016-04-28T04:44:54.766Z,64.68
2016-04-28T04:45:54.737Z,64.97
2016-04-28T04:46:54.739Z,64.49
2016-04-28T04:48:08.836Z,64.4
2016-04-28T04:48:54.730Z,64.11
2016-04-28T04:49:54.747Z,63.92
2016-04-28T04:51:08.829Z,63.92
2016-04-28T04:51:54.738Z,64.2
2016-04-28T04:52:54.944Z,64.11
2016-04-28T04:53:54.727Z,64.3
2016-04-28T04:54:54.777Z,64.3
2016-04-28T04:55:54.733Z,64.11
2016-04-28T04:56:54.563Z,63.82
2016-04-28T04:57:54.723Z,63.73
2016-04-28T04:58:54.756Z,63.45
2016-04-28T04:59:54.729Z,63.45
2016-04-28T05:00:54.949Z,63.35
2016-04-28T05:01:54.718Z,63.35
2016-04-28T05:02:54.736Z,63.64
2016-04-28T05:03:54.707Z,63.29
2016-04-28T05:04:54.710Z,63.2
2016-04-28T05:05:54.744Z,63.17
2016-04-28T05:06:54.715Z,63.2
2016-04-28T05:07:54.796Z,63.45
2016-04-28T05:08:54.737Z,63.67
2016-04-28T05:09:54.692Z,63.01
2016-04-28T05:10:54.725Z,63.1
2016-04-28T05:11:55.088Z,63.29
2016-04-28T05:12:54.732Z,63.29
2016-04-28T05:13:54.687Z,62.62
2016-04-28T05:14:54.689Z,62.43
2016-04-28T05:15:54.709Z,62.43
2016-04-28T05:16:54.695Z,62.53
2016-04-28T05:17:54.698Z,62.43
2016-04-28T05:18:54.716Z,62.53
2016-04-28T05:19:54.704Z,62.62
2016-04-28T05:20:54.909Z,62.72
2016-04-28T05:21:54.709Z,62.34
2016-04-28T05:22:54.680Z,61.68
2016-04-28T05:23:54.682Z,62.05
2016-04-28T05:24:54.701Z,61.96
2016-04-28T05:25:54.689Z,62.24
2016-04-28T05:26:54.722Z,62.05
2016-04-28T05:27:54.678Z,62.05
2016-04-28T05:28:54.682Z,61.58
2016-04-28T05:29:54.684Z,61.87
2016-04-28T05:30:54.687Z,61.2
2016-04-28T05:31:54.689Z,61.39
2016-04-28T05:32:54.896Z,60.85
2016-04-28T05:34:08.772Z,60.73
2016-04-28T05:34:54.916Z,60.95
2016-04-28T05:35:54.700Z,60.95
2016-04-28T05:36:53.967Z,60.85
2016-04-28T05:37:54.673Z,59.52
2016-04-28T05:38:54.677Z,59.43
2016-04-28T05:39:54.679Z,60
2016-04-28T05:41:55.184Z,60
2016-04-28T05:42:54.859Z,59.43
2016-04-28T05:43:54.675Z,60
2016-04-28T05:44:55.303Z,59.81
2016-04-28T05:45:54.680Z,59.91
2016-04-28T05:46:54.697Z,59.43
2016-04-28T05:47:54.670Z,59.62
2016-04-28T05:48:53.922Z,59.62
2016-04-28T05:49:54.659Z,59.62
2016-04-28T05:50:54.677Z,59.71
2016-04-28T05:51:54.665Z,59.43
2016-04-28T05:52:54.667Z,59.62
2016-04-28T05:53:54.889Z,59.81
2016-04-28T05:54:54.719Z,59.14
2016-04-28T05:55:54.675Z,59.05
2016-04-28T05:56:55.319Z,59.33
2016-04-28T05:57:54.665Z,59.14
2016-04-28T05:58:54.652Z,59.05
2016-04-28T05:59:54.671Z,58.86
2016-04-28T06:00:54.694Z,58.86
2016-04-28T06:01:54.707Z,59.52
2016-04-28T06:02:54.750Z,59.05
2016-04-28T06:03:54.809Z,58.7
2016-04-28T06:04:55.025Z,58.58
2016-04-28T06:05:54.892Z,58.7
2016-04-28T06:06:54.878Z,58.7
2016-04-28T06:07:54.911Z,58.61
2016-04-28T06:08:54.914Z,58.98
2016-04-28T06:09:54.930Z,58.89
2016-04-28T06:10:55.165Z,58.98
2016-04-28T06:11:56.907Z,58.51
2016-04-28T06:12:54.977Z,58.41
2016-04-28T06:13:54.984Z,57.37
2016-04-28T06:14:54.946Z,57.65
2016-04-28T06:16:09.062Z,57.28
2016-04-28T06:16:55.629Z,57.28
2016-04-28T06:17:54.977Z,57.28
2016-04-28T06:18:54.966Z,56.51
2016-04-28T06:19:54.987Z,56.23
2016-04-28T06:20:54.975Z,56.45
2016-04-28T06:21:54.979Z,56.73
2016-04-28T06:22:54.982Z,56.54
2016-04-28T06:23:54.985Z,55.69
2016-04-28T06:24:54.989Z,55.3
2016-04-28T06:25:54.993Z,55.3
2016-04-28T06:26:54.980Z,55.4
2016-04-28T06:27:55.343Z,54.64
2016-04-28T06:28:55.189Z,54.93
2016-04-28T06:29:55.005Z,55.11
2016-04-28T06:30:55.024Z,55.11
2016-04-28T06:31:55.010Z,54.64
2016-04-28T06:32:54.999Z,54.74
2016-04-28T06:33:55.001Z,54.45
2016-04-28T06:34:54.988Z,54.07
2016-04-28T06:35:55.007Z,54.07
2016-04-28T06:36:55.009Z,53.41
2016-04-28T06:37:54.995Z,52.84
2016-04-28T06:38:55.045Z,52.74
2016-04-28T06:39:55.048Z,53.5
2016-04-28T06:40:55.410Z,54.26
2016-04-28T06:41:54.881Z,54.29
2016-04-28T06:42:55.009Z,53.72
2016-04-28T06:43:55.246Z,53.72
2016-04-28T06:44:55.014Z,53.43
2016-04-28T06:45:55.017Z,53.05
2016-04-28T06:46:55.004Z,52.96
2016-04-28T06:47:55.023Z,52.58
2016-04-28T06:48:55.025Z,52.01
2016-04-28T06:49:55.012Z,51.34
2016-04-28T06:50:55.030Z,51.06
2016-04-28T06:51:55.018Z,51.34
2016-04-28T06:52:54.786Z,50.29
2016-04-28T06:53:55.023Z,51.25
2016-04-28T06:54:55.025Z,50.96
2016-04-28T06:55:55.028Z,50.96
2016-04-28T06:56:55.016Z,51.08
2016-04-28T06:57:55.033Z,51.08
2016-04-28T06:58:55.052Z,51.93
2016-04-28T06:59:55.038Z,51.37
2016-04-28T07:00:55.041Z,51.18
2016-04-28T07:01:55.061Z,51.18
2016-04-28T07:02:55.079Z,50.89
2016-04-28T07:03:55.049Z,50.51
2016-04-28T07:04:55.257Z,50.51
2016-04-28T07:05:55.055Z,50.51
2016-04-28T07:06:55.057Z,50.42
2016-04-28T07:07:55.060Z,50.99
2016-04-28T07:08:55.110Z,50.42
2016-04-28T07:09:55.097Z,50.32
2016-04-28T07:10:55.101Z,48.71
2016-04-28T07:11:54.931Z,48.23
2016-04-28T07:12:55.074Z,49.27
2016-04-28T07:13:55.077Z,49.75
2016-04-28T07:14:55.079Z,50.23
2016-04-28T07:15:55.286Z,50.04
2016-04-28T07:16:55.084Z,50.51
2016-04-28T07:17:55.291Z,50.6
2016-04-28T07:18:54.544Z,50.13
2016-04-28T07:19:55.327Z,50.13
2016-04-28T07:20:54.345Z,49.85
2016-04-28T07:21:55.130Z,49.85
2016-04-28T07:22:55.540Z,49.65
2016-04-28T07:23:55.105Z,50.04
2016-04-28T07:24:55.545Z,49.27
2016-04-28T07:25:55.110Z,49.94
2016-04-28T07:26:55.051Z,49.08
2016-04-28T07:27:55.975Z,49.94
2016-04-28T07:28:55.164Z,49.85
2016-04-28T07:29:55.339Z,49.27
2016-04-28T07:30:55.139Z,49.75
2016-04-28T07:31:55.376Z,50.51
2016-04-28T07:32:55.192Z,50.04
2016-04-28T07:33:55.148Z,50.04
2016-04-28T07:34:55.166Z,50.25
2016-04-28T07:35:55.153Z,49.68
2016-04-28T07:36:55.186Z,49.68
2016-04-28T07:37:55.174Z,49.01
2016-04-28T07:38:55.144Z,49.3
2016-04-28T07:39:55.163Z,49.58
2016-04-28T07:40:55.150Z,50.06
2016-04-28T07:41:56.060Z,49.3
2016-04-28T07:42:55.515Z,48.44
2016-04-28T07:43:55.174Z,47.68
2016-04-28T07:44:55.083Z,47.3
2016-04-28T07:45:55.383Z,47.3
2016-04-28T07:46:55.199Z,47.87
2016-04-28T07:47:55.216Z,48.25
2016-04-28T07:48:55.203Z,47.68
2016-04-28T07:49:55.190Z,47.3
2016-04-28T07:50:55.412Z,46.92
2016-04-28T07:51:55.211Z,47.3
2016-04-28T07:52:55.401Z,47.58
2016-04-28T07:53:55.232Z,46.44
2016-04-28T07:54:55.235Z,46.73
2016-04-28T07:55:55.457Z,47.32
2016-04-28T07:56:55.257Z,47.71
2016-04-28T07:57:55.681Z,47.04
2016-04-28T07:58:55.434Z,46.18
2016-04-28T07:59:55.233Z,45.51
2016-04-28T08:00:55.236Z,46.47
2016-04-28T08:01:55.254Z,47.23
2016-04-28T08:02:55.241Z,45.89
2016-04-28T08:03:55.259Z,45.7
2016-04-28T08:05:55.311Z,44.87
2016-04-28T08:06:55.127Z,44.59
2016-04-28T08:07:55.251Z,45.44
2016-04-28T08:08:55.253Z,45.25
2016-04-28T08:09:55.256Z,45.15
2016-04-28T08:10:55.259Z,45.92
2016-04-28T08:11:56.479Z,44.11
2016-04-28T08:12:57.154Z,44.87
2016-04-28T08:13:55.266Z,44.49
2016-04-28T08:14:55.270Z,43.91
2016-04-28T08:15:55.319Z,43.25
2016-04-28T08:16:55.290Z,42.87
2016-04-28T08:17:55.293Z,43.63
2016-04-28T08:18:55.296Z,43.35
2016-04-28T08:19:55.298Z,42.68
2016-04-28T08:20:55.316Z,42.68
2016-04-28T08:21:55.475Z,42.58
2016-04-28T08:22:55.353Z,41.35
2016-04-28T08:23:55.341Z,42.3
2016-04-28T08:24:55.327Z,42.49
2016-04-28T08:25:55.330Z,41.92
2016-04-28T08:26:55.208Z,42.2
2016-04-28T08:27:56.039Z,42.49
2016-04-28T08:28:55.370Z,42.2
2016-04-28T08:29:55.388Z,42.3
2016-04-28T08:30:55.594Z,42.96
2016-04-28T08:31:55.596Z,43.06
2016-04-28T08:32:55.380Z,43.44
2016-04-28T08:33:55.399Z,43.35
2016-04-28T08:34:55.401Z,43.35
2016-04-28T08:35:55.623Z,43.44
2016-04-28T08:36:55.407Z,43.63
2016-04-28T08:37:55.831Z,44.11
2016-04-28T08:38:55.443Z,42.49
2016-04-28T08:39:55.398Z,41.92
2016-04-28T08:40:55.418Z,41.65
2016-04-28T08:41:56.186Z,41.06
2016-04-28T08:42:55.845Z,41.63
2016-04-28T08:43:55.426Z,41.72
2016-04-28T08:44:55.647Z,41.17
2016-04-28T08:45:55.446Z,40.68
2016-04-28T08:46:55.637Z,41.35
2016-04-28T08:47:55.780Z,40.89
2016-04-28T08:48:55.564Z,42.03
2016-04-28T08:49:55.645Z,41.56
2016-04-28T08:51:09.554Z,40.2
2016-04-28T08:51:55.666Z,41.25
2016-04-28T08:52:55.684Z,41.56
2016-04-28T08:53:55.483Z,41.17
2016-04-28T08:54:55.486Z,41.27
2016-04-28T08:55:55.505Z,41.08
2016-04-28T08:57:55.760Z,40.8
2016-04-28T08:58:55.513Z,40.99
2016-04-28T08:59:55.515Z,40.89
2016-04-28T09:00:56.236Z,41.39
2016-04-28T09:01:55.536Z,40.81
2016-04-28T09:02:55.727Z,39.39
2016-04-28T09:03:55.558Z,39.36
2016-04-28T09:04:55.529Z,39.48
2016-04-28T09:05:55.563Z,39.48
2016-04-28T09:06:55.535Z,40.44
2016-04-28T09:07:55.552Z,40.81
2016-04-28T09:08:55.571Z,39.94
2016-04-28T09:10:55.904Z,39.39
2016-04-28T09:11:57.735Z,38.12
2016-04-28T09:12:56.754Z,39.08
2016-04-28T09:13:55.632Z,38.7
2016-04-28T09:14:55.618Z,38.12
2016-04-28T09:16:09.684Z,38.7
2016-04-28T09:16:55.842Z,39.36
2016-04-28T09:17:55.142Z,39.36
2016-04-28T09:18:56.285Z,39.17
2016-04-28T09:19:55.631Z,39.08
2016-04-28T09:20:55.634Z,39.46
2016-04-28T09:21:55.747Z,38.68
2016-04-28T09:22:56.436Z,38.12
2016-04-28T09:23:55.642Z,38.96
2016-04-28T09:24:55.692Z,38.68
2016-04-28T09:25:55.867Z,38.58
2016-04-28T09:26:57.369Z,38.58
2016-04-28T09:27:55.700Z,38.39
2016-04-28T09:28:55.686Z,37.82
2016-04-28T09:29:56.080Z,38.58
2016-04-28T09:30:56.176Z,38.1
2016-04-28T09:31:56.319Z,38.68
2016-04-28T09:32:55.730Z,39.15
2016-04-28T09:33:55.935Z,39.06
2016-04-28T09:34:55.890Z,39.44
2016-04-28T09:35:55.705Z,38.58
2016-04-28T09:36:56.662Z,38.49
2016-04-28T09:37:55.727Z,38.68
2016-04-28T09:38:55.713Z,39.25
2016-04-28T09:39:55.732Z,40.39
2016-04-28T09:40:55.281Z,40.87
2016-04-28T09:41:55.846Z,40.87
2016-04-28T09:42:55.741Z,41.08
2016-04-28T09:43:55.759Z,40.8
2016-04-28T09:44:55.793Z,40.99
2016-04-28T09:45:56.170Z,40.99
2016-04-28T09:46:56.017Z,40.89
2016-04-28T09:48:09.862Z,40.72
2016-04-28T09:48:55.772Z,39.76
2016-04-28T09:49:55.806Z,39.48
2016-04-28T09:50:55.325Z,39.58
2016-04-28T09:51:55.795Z,38.43
2016-04-28T09:52:56.392Z,39
2016-04-28T09:53:56.004Z,37.95
2016-04-28T09:54:55.350Z,39.1
2016-04-28T09:55:55.853Z,39.76
2016-04-28T09:56:55.683Z,38.71
2016-04-28T09:57:56.030Z,38.83
2016-04-28T09:58:55.830Z,37.59
2016-04-28T09:59:55.864Z,37.68
2016-04-28T10:00:55.852Z,38.17
2016-04-28T10:01:55.838Z,37.68
2016-04-28T10:02:55.857Z,37.42
2016-04-28T10:03:56.281Z,37.42
2016-04-28T10:04:55.877Z,36.94
2016-04-28T10:05:55.880Z,34.57
2016-04-28T10:06:55.899Z,34.28
2016-04-28T10:07:55.902Z,35.53
2016-04-28T10:08:55.905Z,35.43
2016-04-28T10:09:55.938Z,34.95
2016-04-28T10:10:55.941Z,34.28
2016-04-28T10:11:56.897Z,34
2016-04-28T10:12:56.164Z,35.05
2016-04-28T10:13:55.948Z,34.57
2016-04-28T10:14:55.999Z,35.13
2016-04-28T10:15:56.423Z,35.53
2016-04-28T10:16:55.956Z,35.82
2016-04-28T10:17:56.022Z,36.39
2016-04-28T10:19:10.071Z,36.1
2016-04-28T10:20:10.073Z,36.29
2016-04-28T10:20:56.031Z,37.05
2016-04-28T10:21:56.236Z,34.67
2016-04-28T10:22:56.301Z,34.94
2016-04-28T10:23:56.022Z,34.17
2016-04-28T10:24:56.245Z,35.03
2016-04-28T10:25:56.044Z,34.27
2016-04-28T10:26:56.297Z,34.36
2016-04-28T10:27:56.299Z,35.7
2016-04-28T10:28:56.052Z,36.46
2016-04-28T10:29:56.305Z,36.39
2016-04-28T10:30:56.088Z,35.91
2016-04-28T10:31:56.497Z,36.77
2016-04-28T10:33:56.111Z,35.82
2016-04-28T10:34:56.146Z,36.29
2016-04-28T10:35:55.367Z,36.48
2016-04-28T10:36:56.152Z,36.87
2016-04-28T10:37:56.186Z,35.72
2016-04-28T10:38:56.171Z,35.24
2016-04-28T10:39:56.159Z,36.1
2016-04-28T10:40:56.162Z,35.72
2016-04-28T10:41:58.899Z,34.95
2016-04-28T10:42:56.557Z,35.13
2016-04-28T10:43:56.201Z,36.37
2016-04-28T10:44:56.407Z,35.89
2016-04-28T10:45:56.207Z,35.6
2016-04-28T10:46:56.226Z,34.84
2016-04-28T10:47:56.243Z,35.32
2016-04-28T10:48:56.231Z,36.27
2016-04-28T10:49:56.249Z,36.56
2016-04-28T10:50:56.673Z,35.22
2016-04-28T10:51:56.270Z,35.89
2016-04-28T10:52:56.491Z,36.18
2016-04-28T10:53:56.290Z,36.46
2016-04-28T10:54:56.293Z,35.51
2016-04-28T10:55:56.734Z,35.7
2016-04-28T10:56:57.767Z,35.41
2016-04-28T10:58:10.395Z,35.7
2016-04-28T10:58:56.289Z,35.41
2016-04-28T10:59:56.338Z,36.27
2016-04-28T11:00:56.341Z,35.8
2016-04-28T11:02:10.406Z,35.13
2016-04-28T11:02:56.550Z,35.22
2016-04-28T11:03:56.333Z,35.41
2016-04-28T11:04:56.742Z,35.68
2016-04-28T11:06:10.432Z,35.02
2016-04-28T11:06:56.575Z,35.21
2016-04-28T11:07:56.141Z,35.59
2016-04-28T11:08:56.377Z,36.64
2016-04-28T11:09:56.552Z,37.21
2016-04-28T11:10:56.383Z,38.26
2016-04-28T11:11:56.636Z,39.98
2016-04-28T11:12:56.373Z,41.5
2016-04-28T11:13:56.407Z,41.79
2016-04-28T11:15:56.615Z,39.98
2016-04-28T11:16:56.431Z,39.31
2016-04-28T11:17:56.621Z,38.54
2016-04-28T11:18:56.467Z,38.26
2016-04-28T11:19:56.454Z,37.88
2016-04-28T11:20:56.450Z,37.97
2016-04-28T11:21:56.642Z,37.88
2016-04-28T11:22:56.457Z,37.97
2016-04-28T11:23:56.459Z,37.12
2016-04-28T11:24:56.478Z,37.4
2016-04-28T11:25:56.902Z,37.88
2016-04-28T11:26:56.670Z,35.97
2016-04-28T11:27:57.173Z,35.39
2016-04-28T11:28:56.504Z,35.11
2016-04-28T11:29:56.647Z,35.97
2016-04-28T11:30:56.524Z,35.49
2016-04-28T11:31:56.528Z,36.35
2016-04-28T11:32:56.531Z,33.79
2016-04-28T11:33:56.549Z,33.97
2016-04-28T11:34:56.535Z,34.17
2016-04-28T11:35:56.569Z,34.08
2016-04-28T11:36:56.556Z,34.94
2016-04-28T11:37:56.574Z,36.08
2016-04-28T11:38:56.562Z,34.19
2016-04-28T11:39:56.815Z,34
2016-04-28T11:40:56.583Z,34.09
2016-04-28T11:41:56.570Z,33.33
2016-04-28T11:42:56.807Z,33.81
2016-04-28T11:43:56.810Z,32.47
2016-04-28T11:44:56.610Z,32.09
2016-04-28T11:45:56.628Z,32.47
2016-04-28T11:46:56.849Z,32.47
2016-04-28T11:47:56.665Z,32.66
2016-04-28T11:48:56.886Z,32.28
2016-04-28T11:49:56.639Z,33.81
2016-04-28T11:50:56.720Z,33.04
2016-04-28T11:51:56.645Z,33.23
2016-04-28T11:52:56.662Z,34.09
2016-04-28T11:53:56.680Z,34.4
2016-04-28T11:54:56.917Z,34.49
2016-04-28T11:55:56.702Z,34.59
2016-04-28T11:56:56.720Z,32.6
2016-04-28T11:57:56.958Z,31.93
2016-04-28T11:58:56.725Z,31.93
2016-04-28T12:00:10.806Z,30.21
2016-04-28T12:00:56.731Z,29.83
2016-04-28T12:01:56.936Z,29.25
2016-04-28T12:02:57.174Z,28.69
2016-04-28T12:03:56.785Z,30.03
2016-04-28T12:04:57.007Z,29.27
2016-04-28T12:05:56.963Z,29.84
2016-04-28T12:08:10.905Z,30.13
2016-04-28T12:09:10.893Z,29.76
2016-04-28T12:09:56.801Z,28.99
2016-04-28T12:10:57.023Z,28.79
2016-04-28T12:11:57.104Z,29.28
2016-04-28T12:13:56.109Z,28.12
2016-04-28T12:14:56.878Z,27.36
2016-04-28T12:16:56.118Z,27.16
2016-04-28T12:17:56.886Z,25.63
2016-04-28T12:18:56.904Z,26.21
2016-04-28T12:19:57.126Z,25.44
2016-04-28T12:21:56.928Z,24.68
2016-04-28T12:22:57.118Z,26.5
2016-04-28T12:23:56.933Z,27.16
2016-04-28T12:24:56.936Z,26.21
2016-04-28T12:25:57.344Z,26.3
2016-04-28T12:26:56.972Z,26.3
2016-04-28T12:27:57.100Z,25.82
2016-04-28T12:28:57.228Z,24.39
2016-04-28T12:29:57.028Z,24.49
2016-04-28T12:30:57.030Z,25.54
2016-04-28T12:31:57.049Z,26.11
2016-04-28T12:33:57.055Z,25.82
2016-04-28T12:34:57.040Z,25.44
2016-04-28T12:35:57.074Z,25.15
2016-04-28T12:36:57.062Z,25.15
2016-04-28T12:37:57.096Z,26.01
2016-04-28T12:38:57.099Z,26.31
2016-04-28T12:39:57.164Z,25.65
2016-04-28T12:40:57.135Z,25.74
2016-04-28T12:41:57.122Z,24.3
2016-04-28T12:42:57.860Z,25.25
2016-04-28T12:43:57.144Z,25.35
2016-04-28T12:44:57.223Z,25.92
2016-04-28T12:45:57.148Z,26.21
2016-04-28T12:46:57.151Z,25.35
2016-04-28T12:47:57.388Z,25.44
2016-04-28T12:48:57.172Z,25.25
2016-04-28T12:49:57.190Z,25.44
2016-04-28T12:50:56.725Z,25.63
2016-04-28T12:51:57.306Z,25.25
2016-04-28T12:52:57.433Z,26.21
2016-04-28T12:53:57.217Z,24.68
2016-04-28T12:54:57.267Z,24.58
2016-04-28T12:55:57.441Z,23.13
2016-04-28T12:56:57.241Z,23.43
2016-04-28T12:57:57.305Z,23.8
2016-04-28T12:59:00.292Z,23.53
2016-04-28T12:59:57.295Z,24.66
2016-04-28T13:00:57.267Z,24.19
2016-04-28T13:01:57.286Z,24.28
2016-04-28T13:02:57.288Z,24.38
2016-04-28T13:03:57.338Z,25.24
2016-04-28T13:04:57.309Z,25.24
2016-04-28T13:05:57.343Z,25.14
2016-04-28T13:06:57.346Z,25.62
2016-04-28T13:07:57.536Z,24.76
2016-04-28T13:08:57.414Z,24.01
2016-04-28T13:09:57.588Z,24.77
2016-04-28T13:10:57.388Z,26.01
2016-04-28T13:11:57.375Z,26.21
2016-04-28T13:12:57.393Z,26.01
2016-04-28T13:13:57.396Z,24.96
2016-04-28T13:14:57.648Z,25.43